Time;durP1;ratioP1;P1;durP2;ratioP2;P2;SDS_P1;SDS_P2;PMS_P1;PMS_P2;Temp;Humidity;BMP_temperature;BMP_pressure;BME280_temperature;BME280_humidity;BME280_pressure;Samples;Min_cycle;Max_cycle;Signal;HPM_P1;HPM_P2
2021/12/19 00:01:53;;;;;;;;;;;6.70;99.90;;;;;;5006505;28;19910;-70
2021/12/19 00:09:29;;;;;;;;;;;6.50;99.90;;;;;;5006223;28;20467;-70
2021/12/19 00:11:55;;;;;;;;;;;6.50;99.90;;;;;;5004584;28;19972;-69
2021/12/19 00:14:23;;;;;;;;;;;6.50;99.90;;;;;;4996789;28;20364;-69
2021/12/19 00:16:52;;;;;;;;;;;6.50;99.90;;;;;;4984559;28;19914;-69
2021/12/19 00:19:17;;;;;;;;;;;6.40;99.90;;;;;;4985571;28;19909;-69
2021/12/19 00:21:44;;;;;;;;;;;6.50;99.90;;;;;;5000394;28;20279;-70
2021/12/19 00:24:10;;;;;;;;;;;6.40;99.90;;;;;;4984626;28;19921;-70
2021/12/19 00:26:35;;;;;;;;;;;6.40;99.90;;;;;;4987229;28;19910;-69
2021/12/19 00:29:01;;;;;;;;;;;6.40;99.90;;;;;;4985022;28;20378;-69
2021/12/19 00:31:27;;;;;;;;;;;6.40;99.90;;;;;;4997554;28;20166;-69
2021/12/19 00:33:52;;;;;;;;;;;6.40;99.90;;;;;;4985925;28;19910;-70
2021/12/19 00:36:18;;;;;;;;;;;6.50;99.90;;;;;;4988384;28;19918;-70
2021/12/19 00:38:43;;;;;;;;;;;6.50;99.90;;;;;;5001546;28;20450;-70
2021/12/19 00:41:09;;;;;;;;;;;6.50;99.90;;;;;;4998930;28;20260;-69
2021/12/19 00:43:36;;;;;;;;;;;6.50;99.90;;;;;;4999872;28;19910;-69
2021/12/19 00:46:07;;;;;;;;;;;6.50;99.90;;;;;;5004168;28;20355;-69
2021/12/19 00:48:46;;;;;;;;;;;6.50;99.90;;;;;;5004329;28;19920;-69
2021/12/19 00:51:14;;;;;;;;;;;6.50;99.90;;;;;;5004152;28;19924;-68
2021/12/19 00:53:40;;;;;;;;;;;6.50;99.90;;;;;;4999680;28;19918;-69
2021/12/19 00:56:06;;;;;;;;;;;6.60;99.90;;;;;;4999531;28;20394;-68
2021/12/19 00:58:31;;;;;;;;;;;6.60;99.90;;;;;;5000779;28;19930;-69
2021/12/19 01:00:57;;;;;;;;;;;6.50;99.90;;;;;;5015310;28;19971;-69
2021/12/19 01:03:22;;;;;;;;;;;6.50;99.90;;;;;;5003981;28;19910;-68
2021/12/19 01:05:48;;;;;;;;;;;6.50;99.90;;;;;;5001775;28;19913;-70
2021/12/19 01:08:14;;;;;;;;;;;6.60;99.90;;;;;;5002322;28;19945;-68
2021/12/19 01:10:42;;;;;;;;;;;6.50;99.90;;;;;;5002427;28;19921;-71
2021/12/19 01:13:08;;;;;;;;;;;6.50;99.90;;;;;;5003321;28;19910;-69
2021/12/19 01:15:33;;;;;;;;;;;6.40;99.90;;;;;;5003240;28;19926;-69
2021/12/19 01:17:59;;;;;;;;;;;6.30;99.90;;;;;;5018490;28;19920;-71
2021/12/19 01:20:26;;;;;;;;;;;6.30;99.90;;;;;;5000433;28;19945;-69
2021/12/19 01:22:52;;;;;;;;;;;6.20;99.90;;;;;;5003424;28;19909;-69
2021/12/19 01:25:18;;;;;;;;;;;6.10;99.90;;;;;;4995361;28;19909;-69
2021/12/19 01:27:44;;;;;;;;;;;6.10;99.90;;;;;;5005408;28;19909;-70
2021/12/19 01:30:10;;;;;;;;;;;6.10;99.90;;;;;;5002307;28;20393;-69
2021/12/19 01:32:35;;;;;;;;;;;6.10;99.90;;;;;;5005215;28;19914;-69
2021/12/19 01:35:02;;;;;;;;;;;5.90;99.90;;;;;;5005581;28;20373;-69
2021/12/19 01:37:28;;;;;;;;;;;5.80;99.90;;;;;;5005499;28;19948;-71
2021/12/19 01:39:54;;;;;;;;;;;5.80;99.90;;;;;;5003835;28;20004;-69
2021/12/19 01:42:20;;;;;;;;;;;5.90;99.90;;;;;;5010131;28;19948;-70
2021/12/19 01:44:46;;;;;;;;;;;5.90;99.90;;;;;;5007239;28;19945;-70
2021/12/19 01:47:12;;;;;;;;;;;5.90;99.90;;;;;;5009065;28;19985;-69
2021/12/19 01:49:38;;;;;;;;;;;5.90;99.90;;;;;;4994564;28;19924;-69
2021/12/19 01:52:04;;;;;;;;;;;6.00;99.90;;;;;;4989229;28;20356;-68
2021/12/19 01:54:29;;;;;;;;;;;6.00;99.90;;;;;;5002493;28;20250;-68
2021/12/19 01:56:55;;;;;;;;;;;6.00;99.90;;;;;;5002737;28;19953;-68
2021/12/19 01:59:20;;;;;;;;;;;6.00;99.90;;;;;;5016567;28;19957;-69
2021/12/19 02:01:47;;;;;;;;;;;5.90;99.90;;;;;;5006314;28;19969;-68
2021/12/19 02:04:13;;;;;;;;;;;6.00;99.90;;;;;;5008989;28;19909;-69
2021/12/19 02:06:39;;;;;;;;;;;6.00;99.90;;;;;;5008728;28;20336;-69
2021/12/19 02:09:06;;;;;;;;;;;6.00;99.90;;;;;;5009001;28;19913;-68
2021/12/19 02:11:33;;;;;;;;;;;5.90;99.90;;;;;;5008116;28;19921;-70
2021/12/19 02:13:59;;;;;;;;;;;5.90;99.90;;;;;;5009015;28;19914;-69
2021/12/19 02:16:24;;;;;;;;;;;5.90;99.90;;;;;;5009917;28;20299;-69
2021/12/19 02:18:50;;;;;;;;;;;5.90;99.90;;;;;;5008858;28;19921;-68
2021/12/19 02:21:16;;;;;;;;;;;5.90;99.90;;;;;;5009978;28;19971;-68
2021/12/19 02:23:41;;;;;;;;;;;5.80;99.90;;;;;;5002489;28;20020;-69
2021/12/19 02:26:07;;;;;;;;;;;5.80;99.90;;;;;;5004467;28;19961;-68
2021/12/19 02:28:32;;;;;;;;;;;5.90;99.90;;;;;;5003609;28;20338;-70
2021/12/19 02:30:58;;;;;;;;;;;5.80;99.90;;;;;;5003449;28;20434;-68
2021/12/19 02:33:26;;;;;;;;;;;5.80;99.90;;;;;;5000487;28;19916;-69
2021/12/19 02:36:01;;;;;;;;;;;5.80;99.90;;;;;;5008409;28;20506;-68
2021/12/19 02:49:00;;;;;;;;;;;5.70;99.90;;;;;;5012049;28;20032;-69
2021/12/19 02:51:30;;;;;;;;;;;5.70;99.90;;;;;;5009128;28;19922;-68
2021/12/19 02:53:57;;;;;;;;;;;5.70;99.90;;;;;;5009283;28;20287;-68
2021/12/19 02:56:23;;;;;;;;;;;5.80;99.90;;;;;;5013667;28;19939;-68
2021/12/19 02:58:48;;;;;;;;;;;5.90;99.90;;;;;;5006061;28;20647;-69
2021/12/19 03:01:16;;;;;;;;;;;5.90;99.90;;;;;;5010805;28;19925;-69
2021/12/19 03:03:41;;;;;;;;;;;5.90;99.90;;;;;;5014178;28;19909;-69
2021/12/19 03:06:07;;;;;;;;;;;6.00;99.90;;;;;;5013714;28;20001;-69
2021/12/19 03:08:33;;;;;;;;;;;5.90;99.90;;;;;;5012968;28;19916;-69
2021/12/19 03:17:56;;;;;;;;;;;6.10;99.90;;;;;;5008003;28;19913;-69
2021/12/19 03:19:10;;;;;;;;;;;6.00;99.90;;;;;;5006481;28;19916;-69
2021/12/19 03:21:35;;;;;;;;;;;6.10;99.90;;;;;;5008642;28;20019;-69
2021/12/19 03:24:01;;;;;;;;;;;6.10;99.90;;;;;;5009984;28;19916;-68
2021/12/19 03:26:26;;;;;;;;;;;6.20;99.90;;;;;;5008567;28;20383;-69
2021/12/19 03:28:51;;;;;;;;;;;6.20;99.90;;;;;;5009502;28;19968;-69
2021/12/19 03:31:17;;;;;;;;;;;6.20;99.90;;;;;;5010627;28;19917;-70
2021/12/19 03:33:42;;;;;;;;;;;6.20;99.90;;;;;;5011340;28;19910;-71
2021/12/19 03:36:08;;;;;;;;;;;6.30;99.90;;;;;;5009962;28;19944;-69
2021/12/19 03:38:39;;;;;;;;;;;6.20;99.90;;;;;;5009264;28;19920;-69
2021/12/19 03:41:16;;;;;;;;;;;6.40;99.90;;;;;;4996192;28;19910;-70
2021/12/19 03:43:41;;;;;;;;;;;6.40;99.90;;;;;;5015735;28;20498;-69
2021/12/19 03:46:07;;;;;;;;;;;6.50;99.90;;;;;;5008155;28;19910;-70
2021/12/19 03:48:32;;;;;;;;;;;6.60;99.90;;;;;;5018616;28;19910;-68
2021/12/19 03:50:58;;;;;;;;;;;6.60;99.90;;;;;;5001973;28;19925;-70
2021/12/19 03:53:24;;;;;;;;;;;6.70;99.90;;;;;;4987541;28;19925;-70
2021/12/19 03:55:50;;;;;;;;;;;6.70;99.90;;;;;;5016739;28;19996;-69
2021/12/19 03:58:17;;;;;;;;;;;6.60;99.90;;;;;;5007678;28;20003;-70
2021/12/19 04:00:43;;;;;;;;;;;6.60;99.90;;;;;;4996506;28;19968;-69
2021/12/19 04:03:10;;;;;;;;;;;6.70;99.90;;;;;;4986854;28;19916;-67
2021/12/19 04:05:38;;;;;;;;;;;6.70;99.90;;;;;;4999913;28;19959;-69
2021/12/19 04:08:04;;;;;;;;;;;6.70;99.90;;;;;;5001231;28;20038;-69
2021/12/19 04:10:29;;;;;;;;;;;6.60;99.90;;;;;;4997597;28;19949;-69
2021/12/19 04:12:55;;;;;;;;;;;6.70;99.90;;;;;;4992481;28;19940;-70
2021/12/19 04:15:23;;;;;;;;;;;6.50;99.90;;;;;;4987036;28;20445;-70
2021/12/19 04:17:48;;;;;;;;;;;6.60;99.90;;;;;;4985996;28;20001;-68
2021/12/19 04:20:18;;;;;;;;;;;6.80;99.90;;;;;;4985770;28;19917;-69
2021/12/19 04:22:44;;;;;;;;;;;6.90;99.90;;;;;;4985531;28;19910;-70
2021/12/19 04:25:10;;;;;;;;;;;6.80;99.90;;;;;;4986070;28;19918;-68
2021/12/19 04:27:36;;;;;;;;;;;6.60;99.90;;;;;;5000829;28;19914;-69
2021/12/19 04:30:06;;;;;;;;;;;6.60;99.90;;;;;;4987674;28;19945;-68
2021/12/19 04:32:36;;;;;;;;;;;6.50;99.90;;;;;;5008383;28;19996;-69
2021/12/19 04:35:02;;;;;;;;;;;6.60;99.90;;;;;;5013358;28;19909;-69
2021/12/19 04:40:14;;;;;;;;;;;6.60;99.90;;;;;;5009115;28;19909;-69
2021/12/19 05:00:51;;;;;;;;;;;6.80;99.90;;;;;;4989372;28;19941;-69
2021/12/19 05:03:33;;;;;;;;;;;6.90;99.90;;;;;;4984605;28;20377;-70
2021/12/19 05:14:22;;;;;;;;;;;7.30;99.90;;;;;;4997323;28;20310;-71
2021/12/19 05:16:49;;;;;;;;;;;7.20;99.90;;;;;;4999740;28;19921;-69
2021/12/19 05:21:47;;;;;;;;;;;6.90;99.90;;;;;;4997938;28;19909;-70
2021/12/19 05:26:44;;;;;;;;;;;7.00;99.90;;;;;;5002026;28;19923;-69
2021/12/19 05:29:09;;;;;;;;;;;6.90;99.90;;;;;;5001784;28;19933;-68
2021/12/19 05:31:35;;;;;;;;;;;6.90;99.90;;;;;;5002760;28;20383;-69
2021/12/19 05:34:01;;;;;;;;;;;6.80;99.90;;;;;;5005495;28;20009;-70
2021/12/19 05:47:01;;;;;;;;;;;6.60;99.90;;;;;;5014287;28;19924;-71
2021/12/19 05:49:27;;;;;;;;;;;6.60;99.90;;;;;;5007764;28;19909;-71
2021/12/19 05:51:52;;;;;;;;;;;6.70;99.90;;;;;;4997487;28;19920;-71
2021/12/19 05:54:18;;;;;;;;;;;6.70;99.90;;;;;;4989522;28;19910;-70
2021/12/19 05:56:44;;;;;;;;;;;6.70;99.90;;;;;;4988104;28;20029;-69
2021/12/19 05:59:09;;;;;;;;;;;6.70;99.90;;;;;;4988223;28;20004;-70
2021/12/19 06:01:35;;;;;;;;;;;6.70;99.90;;;;;;4988832;28;20048;-70
2021/12/19 06:04:01;;;;;;;;;;;6.70;99.90;;;;;;4993291;28;20430;-69
2021/12/19 06:06:26;;;;;;;;;;;6.80;99.90;;;;;;5007059;28;19921;-68
2021/12/19 06:08:55;;;;;;;;;;;6.80;99.90;;;;;;4988517;28;19964;-68
2021/12/19 06:11:20;;;;;;;;;;;6.80;99.90;;;;;;4988161;28;19917;-69
2021/12/19 06:13:46;;;;;;;;;;;6.80;99.90;;;;;;4988179;28;19917;-69
2021/12/19 06:16:12;;;;;;;;;;;6.80;99.90;;;;;;4988077;28;20351;-69
2021/12/19 06:18:37;;;;;;;;;;;6.80;99.90;;;;;;4988211;28;20128;-71
2021/12/19 06:21:03;;;;;;;;;;;6.80;99.90;;;;;;4987899;28;19913;-70
2021/12/19 06:23:28;;;;;;;;;;;6.80;99.90;;;;;;4988393;28;19910;-70
2021/12/19 06:25:54;;;;;;;;;;;6.90;99.90;;;;;;4988180;28;19971;-71
2021/12/19 06:28:21;;;;;;;;;;;7.00;99.90;;;;;;4988067;28;20386;-70
2021/12/19 06:30:47;;;;;;;;;;;7.00;99.90;;;;;;4990630;28;19924;-69
2021/12/19 06:33:12;;;;;;;;;;;7.00;99.90;;;;;;5005819;28;20234;-71
2021/12/19 06:35:38;;;;;;;;;;;7.00;99.90;;;;;;5008991;28;20391;-70
2021/12/19 06:38:04;;;;;;;;;;;7.00;99.90;;;;;;5007952;28;20185;-71
2021/12/19 06:40:29;;;;;;;;;;;7.10;99.90;;;;;;5007548;28;19920;-71
2021/12/19 06:42:55;;;;;;;;;;;7.00;99.90;;;;;;5006673;28;20033;-71
2021/12/19 06:45:21;;;;;;;;;;;6.90;99.90;;;;;;4998959;28;19914;-69
2021/12/19 06:47:47;;;;;;;;;;;6.90;99.90;;;;;;4987972;28;19993;-70
2021/12/19 06:50:13;;;;;;;;;;;6.90;99.90;;;;;;4988173;28;19913;-69
2021/12/19 06:52:39;;;;;;;;;;;6.90;99.90;;;;;;4988335;28;19917;-68
2021/12/19 06:55:06;;;;;;;;;;;6.90;99.90;;;;;;4997122;28;19917;-69
2021/12/19 06:57:32;;;;;;;;;;;6.90;99.90;;;;;;5004982;28;20173;-69
2021/12/19 06:59:57;;;;;;;;;;;6.90;99.90;;;;;;5006551;28;20445;-70
2021/12/19 07:02:23;;;;;;;;;;;6.80;99.90;;;;;;5003058;28;20374;-70
2021/12/19 07:04:49;;;;;;;;;;;6.90;99.90;;;;;;5006133;28;19917;-70
2021/12/19 07:07:15;;;;;;;;;;;6.90;99.90;;;;;;5005939;28;19909;-72
2021/12/19 07:09:40;;;;;;;;;;;6.90;99.90;;;;;;5003773;28;20338;-70
2021/12/19 07:12:06;;;;;;;;;;;6.90;99.90;;;;;;5001574;28;19941;-69
2021/12/19 07:14:32;;;;;;;;;;;7.00;99.90;;;;;;5009066;28;20215;-69
2021/12/19 07:16:58;;;;;;;;;;;7.00;99.90;;;;;;5009816;28;20377;-69
2021/12/19 07:19:23;;;;;;;;;;;7.00;99.90;;;;;;5025922;28;20371;-70
2021/12/19 07:21:49;;;;;;;;;;;7.00;99.90;;;;;;5008455;28;20013;-68
2021/12/19 07:24:14;;;;;;;;;;;6.90;99.90;;;;;;5004191;28;20034;-70
2021/12/19 07:26:40;;;;;;;;;;;6.90;99.90;;;;;;5001550;28;19916;-69
2021/12/19 07:29:05;;;;;;;;;;;6.90;99.90;;;;;;5011893;28;20385;-69
2021/12/19 07:31:33;;;;;;;;;;;6.90;99.90;;;;;;5007875;28;19921;-69
2021/12/19 07:33:59;;;;;;;;;;;6.90;99.90;;;;;;5009266;28;19918;-69
2021/12/19 07:36:29;;;;;;;;;;;6.90;99.90;;;;;;4996942;28;19910;-69
2021/12/19 07:39:01;;;;;;;;;;;6.90;99.90;;;;;;5002638;28;19921;-69
2021/12/19 07:41:27;;;;;;;;;;;6.90;99.90;;;;;;5008226;28;20393;-70
2021/12/19 07:43:52;;;;;;;;;;;6.90;99.90;;;;;;5008494;28;19910;-69
2021/12/19 07:46:18;;;;;;;;;;;6.90;99.90;;;;;;5006502;28;19913;-68
2021/12/19 07:48:43;;;;;;;;;;;6.90;99.90;;;;;;5005069;28;19920;-69
2021/12/19 07:51:09;;;;;;;;;;;6.90;99.90;;;;;;5000793;28;20362;-67
2021/12/19 07:53:34;;;;;;;;;;;6.90;99.90;;;;;;4987959;28;19941;-71
2021/12/19 07:56:00;;;;;;;;;;;6.90;99.90;;;;;;4989359;28;20541;-69
2021/12/19 07:58:26;;;;;;;;;;;6.90;99.90;;;;;;5006256;28;19929;-69
2021/12/19 08:00:51;;;;;;;;;;;6.90;99.90;;;;;;4988365;28;20427;-69
2021/12/19 08:03:17;;;;;;;;;;;6.90;99.90;;;;;;4994940;28;19936;-69
2021/12/19 08:05:42;;;;;;;;;;;7.00;99.90;;;;;;5017690;28;19960;-70
2021/12/19 08:08:10;;;;;;;;;;;7.00;99.90;;;;;;5001464;28;19910;-69
2021/12/19 08:13:03;;;;;;;;;;;7.00;99.90;;;;;;5009948;28;19916;-70
2021/12/19 08:15:28;;;;;;;;;;;7.00;99.90;;;;;;5009508;28;19928;-69
2021/12/19 08:17:54;;;;;;;;;;;7.00;99.90;;;;;;5005725;28;19910;-69
2021/12/19 08:20:19;;;;;;;;;;;7.00;99.90;;;;;;5006128;28;19914;-69
2021/12/19 08:22:47;;;;;;;;;;;7.00;99.90;;;;;;5006707;28;19941;-70
2021/12/19 08:25:12;;;;;;;;;;;7.00;99.90;;;;;;4993929;28;19928;-70
2021/12/19 08:27:38;;;;;;;;;;;7.00;99.90;;;;;;5007406;28;20016;-70
2021/12/19 08:30:05;;;;;;;;;;;7.00;99.90;;;;;;4992931;28;19914;-68
2021/12/19 08:32:30;;;;;;;;;;;7.00;99.90;;;;;;5000523;28;20406;-68
2021/12/19 08:34:56;;;;;;;;;;;7.00;99.90;;;;;;5002240;28;19952;-69
2021/12/19 08:37:21;;;;;;;;;;;6.90;99.90;;;;;;5007600;28;19952;-68
2021/12/19 08:39:47;;;;;;;;;;;6.80;99.90;;;;;;5005763;28;19949;-69
2021/12/19 08:42:13;;;;;;;;;;;6.90;99.90;;;;;;5005505;28;20133;-70
2021/12/19 08:44:38;;;;;;;;;;;6.90;99.90;;;;;;5004712;28;19917;-70
2021/12/19 08:47:04;;;;;;;;;;;6.90;99.90;;;;;;5004542;28;19910;-69
2021/12/19 08:49:29;;;;;;;;;;;6.90;99.90;;;;;;5003590;28;20130;-69
2021/12/19 08:51:55;;;;;;;;;;;6.90;99.90;;;;;;5006211;28;19919;-70
2021/12/19 08:54:22;;;;;;;;;;;6.90;99.90;;;;;;4990186;28;19917;-68
2021/12/19 08:56:48;;;;;;;;;;;7.00;99.90;;;;;;4995382;28;20342;-69
2021/12/19 08:59:14;;;;;;;;;;;7.00;99.90;;;;;;5004545;28;19932;-69
2021/12/19 09:01:39;;;;;;;;;;;7.00;99.90;;;;;;5002352;28;20315;-70
2021/12/19 09:04:05;;;;;;;;;;;7.00;99.90;;;;;;4999790;28;20012;-70
2021/12/19 09:06:31;;;;;;;;;;;7.00;99.90;;;;;;4985829;28;19925;-70
2021/12/19 09:08:56;;;;;;;;;;;7.00;99.90;;;;;;4986436;28;19918;-71
2021/12/19 09:11:22;;;;;;;;;;;7.10;99.90;;;;;;4985581;28;20402;-71
2021/12/19 09:13:48;;;;;;;;;;;7.10;99.90;;;;;;4985508;28;19976;-72
2021/12/19 09:16:13;;;;;;;;;;;7.10;99.90;;;;;;4985078;28;20004;-71
2021/12/19 09:18:39;;;;;;;;;;;7.10;99.90;;;;;;4984464;28;19914;-71
2021/12/19 09:21:04;;;;;;;;;;;7.10;99.90;;;;;;4985568;28;20360;-71
2021/12/19 09:23:30;;;;;;;;;;;7.20;99.90;;;;;;4984443;28;19925;-70
2021/12/19 09:25:55;;;;;;;;;;;7.20;99.90;;;;;;4984423;28;19945;-70
2021/12/19 09:28:21;;;;;;;;;;;7.20;99.90;;;;;;4984393;28;20012;-72
2021/12/19 09:30:46;;;;;;;;;;;7.20;99.90;;;;;;4984096;28;19918;-71
2021/12/19 09:33:12;;;;;;;;;;;7.20;99.90;;;;;;4998212;28;19913;-71
2021/12/19 09:35:38;;;;;;;;;;;7.20;99.90;;;;;;5003798;28;19913;-71
2021/12/19 09:38:04;;;;;;;;;;;7.30;99.90;;;;;;5005306;28;20214;-69
2021/12/19 09:40:35;;;;;;;;;;;7.20;99.90;;;;;;4994698;28;19980;-69
2021/12/19 09:43:03;;;;;;;;;;;7.20;99.90;;;;;;4987439;28;19920;-71
2021/12/19 09:45:29;;;;;;;;;;;7.20;99.90;;;;;;4986205;28;20379;-71
2021/12/19 09:47:55;;;;;;;;;;;7.20;99.90;;;;;;4985438;28;19910;-70
2021/12/19 09:50:20;;;;;;;;;;;7.20;99.90;;;;;;4985687;28;19925;-70
2021/12/19 09:52:46;;;;;;;;;;;7.20;99.90;;;;;;4998397;28;19914;-70
2021/12/19 09:55:16;;;;;;;;;;;7.30;99.90;;;;;;4997742;28;20063;-70
2021/12/19 09:57:41;;;;;;;;;;;7.30;99.90;;;;;;5003974;28;19967;-69
2021/12/19 10:00:07;;;;;;;;;;;7.40;99.90;;;;;;5011842;28;19976;-70
2021/12/19 10:02:33;;;;;;;;;;;7.30;99.90;;;;;;5002105;28;19933;-70
2021/12/19 10:05:12;;;;;;;;;;;7.30;99.90;;;;;;5003195;28;20032;-71
2021/12/19 10:07:45;;;;;;;;;;;7.30;99.90;;;;;;4997993;28;19909;-72
2021/12/19 10:10:13;;;;;;;;;;;7.40;99.90;;;;;;4997807;28;19921;-71
2021/12/19 10:12:48;;;;;;;;;;;7.30;99.90;;;;;;5003185;28;19917;-70
2021/12/19 10:15:18;;;;;;;;;;;7.40;99.90;;;;;;5008248;28;20363;-72
2021/12/19 10:17:44;;;;;;;;;;;7.40;99.90;;;;;;5020815;28;20413;-72
2021/12/19 10:20:10;;;;;;;;;;;7.40;99.90;;;;;;5010340;28;19913;-73
2021/12/19 10:22:43;;;;;;;;;;;7.30;99.90;;;;;;5003293;28;20051;-69
2021/12/19 10:25:11;;;;;;;;;;;7.30;99.90;;;;;;5004155;28;20092;-70
2021/12/19 10:27:38;;;;;;;;;;;7.30;99.90;;;;;;4999768;28;19911;-69
2021/12/19 10:30:09;;;;;;;;;;;7.40;99.90;;;;;;5003972;28;20374;-72
2021/12/19 10:32:34;;;;;;;;;;;7.40;99.90;;;;;;5001014;28;20400;-73
2021/12/19 10:35:13;;;;;;;;;;;7.40;99.90;;;;;;4999903;28;19999;-69
2021/12/19 10:37:38;;;;;;;;;;;7.40;99.90;;;;;;5001098;28;20406;-73
2021/12/19 10:40:04;;;;;;;;;;;7.50;99.90;;;;;;5001610;28;19996;-75
2021/12/19 10:42:35;;;;;;;;;;;7.30;99.90;;;;;;5000529;28;19996;-70
2021/12/19 10:47:44;;;;;;;;;;;7.40;99.90;;;;;;5002217;28;19925;-68
2021/12/19 10:50:10;;;;;;;;;;;7.40;99.90;;;;;;4994630;28;19921;-71
2021/12/19 10:52:37;;;;;;;;;;;7.40;99.90;;;;;;4996692;28;20420;-71
2021/12/19 10:55:05;;;;;;;;;;;7.40;99.90;;;;;;4996814;28;19910;-68
2021/12/19 10:57:35;;;;;;;;;;;7.40;99.90;;;;;;4996918;28;20294;-70
2021/12/19 11:00:03;;;;;;;;;;;7.40;99.90;;;;;;5008513;28;20379;-71
2021/12/19 11:02:55;;;;;;;;;;;7.40;99.90;;;;;;4996253;28;20456;-68
2021/12/19 11:05:32;;;;;;;;;;;7.40;99.90;;;;;;4996092;28;19964;-69
2021/12/19 11:08:05;;;;;;;;;;;7.50;99.90;;;;;;4997993;28;19918;-70
2021/12/19 11:10:32;;;;;;;;;;;7.40;99.90;;;;;;4997835;28;20392;-70
2021/12/19 11:13:10;;;;;;;;;;;7.40;99.90;;;;;;4998918;28;19916;-72
2021/12/19 11:15:37;;;;;;;;;;;7.40;99.90;;;;;;4998850;28;20272;-70
2021/12/19 11:18:03;;;;;;;;;;;7.40;99.90;;;;;;5002095;28;20162;-70
2021/12/19 11:20:28;;;;;;;;;;;7.40;99.90;;;;;;4998008;28;19906;-70
2021/12/19 11:22:54;;;;;;;;;;;7.40;99.90;;;;;;5001865;28;21164;-69
2021/12/19 11:25:20;;;;;;;;;;;7.40;99.90;;;;;;4994219;28;19939;-69
2021/12/19 11:27:46;;;;;;;;;;;7.50;99.90;;;;;;4998931;28;20235;-71
2021/12/19 11:30:14;;;;;;;;;;;7.50;99.90;;;;;;4998044;28;19917;-69
2021/12/19 11:32:49;;;;;;;;;;;7.50;99.90;;;;;;4996045;28;19925;-70
2021/12/19 11:35:20;;;;;;;;;;;7.50;99.90;;;;;;4996646;28;19913;-70
2021/12/19 11:37:49;;;;;;;;;;;7.50;99.90;;;;;;4997434;28;19910;-68
2021/12/19 11:40:16;;;;;;;;;;;7.60;99.90;;;;;;4998708;28;20331;-72
2021/12/19 11:42:42;;;;;;;;;;;7.60;99.90;;;;;;4997862;28;19925;-70
2021/12/19 11:47:56;;;;;;;;;;;7.70;99.90;;;;;;4999277;28;19967;-70
2021/12/19 11:50:27;;;;;;;;;;;7.70;99.90;;;;;;4998137;28;19921;-71
2021/12/19 11:53:16;;;;;;;;;;;7.70;99.90;;;;;;4999484;28;20233;-69
2021/12/19 11:55:43;;;;;;;;;;;7.60;99.90;;;;;;4994817;28;20373;-70
2021/12/19 11:58:08;;;;;;;;;;;7.70;99.90;;;;;;4997519;28;19940;-71
2021/12/19 12:00:54;;;;;;;;;;;7.70;99.90;;;;;;4996517;28;19914;-70
2021/12/19 12:03:21;;;;;;;;;;;7.70;99.90;;;;;;4994593;28;19920;-69
2021/12/19 12:05:48;;;;;;;;;;;7.70;99.90;;;;;;4996413;28;19975;-70
2021/12/19 12:08:15;;;;;;;;;;;7.80;99.90;;;;;;4996311;28;19910;-71
2021/12/19 12:10:55;;;;;;;;;;;7.80;99.90;;;;;;4992703;28;20009;-71
2021/12/19 12:13:30;;;;;;;;;;;7.80;99.90;;;;;;5004424;28;19997;-71
2021/12/19 12:16:08;;;;;;;;;;;7.80;99.90;;;;;;4986026;28;20286;-76
2021/12/19 12:18:34;;;;;;;;;;;7.90;99.90;;;;;;4986556;28;19945;-70
2021/12/19 12:22:00;;;;;;;;;;;7.80;99.90;;;;;;5001595;28;19913;-69
2021/12/19 12:24:14;;;;;;;;;;;7.80;99.90;;;;;;4997224;28;19935;-70
2021/12/19 12:26:51;;;;;;;;;;;7.70;99.90;;;;;;5003134;28;20303;-69
2021/12/19 12:29:16;;;;;;;;;;;7.70;99.90;;;;;;5002310;28;19996;-69
2021/12/19 12:31:43;;;;;;;;;;;7.70;99.90;;;;;;4999656;28;20008;-71
2021/12/19 12:34:11;;;;;;;;;;;7.70;99.90;;;;;;5004446;28;20000;-70
2021/12/19 12:36:37;;;;;;;;;;;7.60;99.90;;;;;;5005234;28;19916;-69
2021/12/19 12:39:07;;;;;;;;;;;7.60;99.90;;;;;;5005618;28;20321;-72
2021/12/19 12:44:05;;;;;;;;;;;7.70;99.90;;;;;;5010909;28;19909;-71
2021/12/19 12:46:30;;;;;;;;;;;7.70;99.90;;;;;;5006818;28;20198;-68
2021/12/19 12:48:56;;;;;;;;;;;7.70;99.90;;;;;;5006837;28;19909;-71
2021/12/19 12:51:26;;;;;;;;;;;7.70;99.90;;;;;;4999416;28;20322;-72
2021/12/19 12:53:53;;;;;;;;;;;7.70;99.90;;;;;;4985924;28;20397;-70
2021/12/19 12:56:22;;;;;;;;;;;7.70;99.90;;;;;;4988130;28;19914;-68
2021/12/19 12:58:49;;;;;;;;;;;7.70;99.90;;;;;;4987946;28;19972;-70
2021/12/19 13:01:35;;;;;;;;;;;7.70;99.90;;;;;;4988412;28;19917;-68
2021/12/19 13:04:01;;;;;;;;;;;7.70;99.90;;;;;;5006871;28;20181;-70
2021/12/19 13:06:37;;;;;;;;;;;7.70;99.90;;;;;;5016304;28;19952;-70
2021/12/19 13:09:20;;;;;;;;;;;7.70;99.90;;;;;;5034056;28;19913;-70
2021/12/19 13:11:48;;;;;;;;;;;7.70;99.90;;;;;;5016529;28;19926;-72
2021/12/19 13:14:22;;;;;;;;;;;7.70;99.90;;;;;;5011905;28;20028;-72
2021/12/19 13:16:49;;;;;;;;;;;7.60;99.90;;;;;;5015430;28;19918;-71
2021/12/19 13:19:33;;;;;;;;;;;7.60;99.90;;;;;;5014592;28;20005;-69
2021/12/19 13:21:59;;;;;;;;;;;7.60;99.90;;;;;;5006380;28;19910;-71
2021/12/19 13:24:24;;;;;;;;;;;7.60;99.90;;;;;;5013025;28;19916;-71
2021/12/19 13:27:06;;;;;;;;;;;7.70;99.90;;;;;;5000735;28;19914;-70
2021/12/19 13:29:32;;;;;;;;;;;7.60;99.90;;;;;;5014791;28;19975;-72
2021/12/19 13:32:17;;;;;;;;;;;7.60;99.90;;;;;;5023044;28;19921;-72
2021/12/19 13:34:43;;;;;;;;;;;7.50;99.90;;;;;;5008988;28;19909;-71
2021/12/19 13:37:08;;;;;;;;;;;7.50;99.90;;;;;;5006737;28;19936;-72
2021/12/19 13:39:34;;;;;;;;;;;7.50;99.90;;;;;;5021764;28;19910;-71
2021/12/19 13:42:26;;;;;;;;;;;7.50;99.90;;;;;;5007417;28;19999;-71
2021/12/19 13:44:51;;;;;;;;;;;7.40;99.90;;;;;;5003778;28;20550;-71
2021/12/19 13:47:23;;;;;;;;;;;7.30;99.90;;;;;;5004724;28;19963;-72
2021/12/19 13:49:49;;;;;;;;;;;7.30;99.90;;;;;;5010663;28;19924;-71
2021/12/19 13:52:15;;;;;;;;;;;7.30;99.90;;;;;;5013406;28;20622;-72
2021/12/19 13:54:40;;;;;;;;;;;7.30;99.90;;;;;;5014867;28;19916;-71
2021/12/19 13:57:16;;;;;;;;;;;7.30;99.90;;;;;;5012596;28;19910;-71
2021/12/19 13:59:41;;;;;;;;;;;7.30;99.90;;;;;;5011467;28;19917;-69
2021/12/19 14:02:09;;;;;;;;;;;7.30;99.90;;;;;;4995597;28;20049;-68
2021/12/19 14:04:35;;;;;;;;;;;7.40;99.90;;;;;;4989414;28;19910;-70
2021/12/19 14:07:03;;;;;;;;;;;7.40;99.90;;;;;;4988419;28;19916;-70
2021/12/19 14:09:28;;;;;;;;;;;7.40;99.90;;;;;;4989406;28;19910;-69
2021/12/19 14:12:00;;;;;;;;;;;7.40;99.90;;;;;;4989776;28;19925;-70
2021/12/19 14:14:31;;;;;;;;;;;7.30;99.90;;;;;;5004288;28;19913;-69
2021/12/19 14:16:56;;;;;;;;;;;7.30;99.90;;;;;;4989469;28;20386;-69
2021/12/19 14:19:29;;;;;;;;;;;7.30;99.90;;;;;;4988269;28;19914;-71
2021/12/19 14:22:15;;;;;;;;;;;7.30;99.90;;;;;;4988862;28;19910;-70
2021/12/19 14:24:45;;;;;;;;;;;7.20;99.90;;;;;;4988538;28;19933;-70
2021/12/19 14:27:12;;;;;;;;;;;7.20;99.90;;;;;;4990186;28;19914;-69
2021/12/19 14:29:38;;;;;;;;;;;7.20;99.90;;;;;;4989474;28;19913;-70
2021/12/19 14:32:07;;;;;;;;;;;7.20;99.90;;;;;;4995038;28;19913;-69
2021/12/19 14:34:33;;;;;;;;;;;7.20;99.90;;;;;;4997640;28;19918;-70
2021/12/19 14:37:31;;;;;;;;;;;7.20;99.90;;;;;;4988533;28;20279;-71
2021/12/19 14:40:10;;;;;;;;;;;7.20;99.90;;;;;;4953610;28;19914;-70
2021/12/19 14:42:37;;;;;;;;;;;7.20;99.90;;;;;;4989181;28;20414;-69
2021/12/19 14:45:06;;;;;;;;;;;7.20;99.90;;;;;;4988216;28;19909;-70
2021/12/19 14:47:35;;;;;;;;;;;7.30;99.90;;;;;;4987818;28;19924;-70
2021/12/19 14:50:33;;;;;;;;;;;7.20;99.90;;;;;;4987237;28;20351;-70
2021/12/19 14:53:00;;;;;;;;;;;7.30;99.90;;;;;;4964510;28;19910;-69
2021/12/19 14:55:28;;;;;;;;;;;7.30;99.90;;;;;;4989770;28;20406;-70
2021/12/19 14:57:53;;;;;;;;;;;7.40;99.90;;;;;;4990225;28;19945;-71
2021/12/19 15:00:19;;;;;;;;;;;7.40;99.90;;;;;;4987987;28;20387;-71
2021/12/19 15:02:45;;;;;;;;;;;7.30;99.90;;;;;;4990009;28;19914;-71
2021/12/19 15:05:11;;;;;;;;;;;7.40;99.90;;;;;;4996829;28;20375;-70
2021/12/19 15:07:42;;;;;;;;;;;7.40;99.90;;;;;;5008043;28;20025;-71
2021/12/19 15:10:08;;;;;;;;;;;7.40;99.90;;;;;;5009876;28;19916;-70
2021/12/19 15:12:33;;;;;;;;;;;7.40;99.90;;;;;;5007845;28;19910;-69
2021/12/19 15:14:59;;;;;;;;;;;7.40;99.90;;;;;;5007273;28;19917;-70
2021/12/19 15:17:25;;;;;;;;;;;7.40;99.90;;;;;;5007245;28;19913;-70
2021/12/19 15:19:50;;;;;;;;;;;7.40;99.90;;;;;;5007200;28;19909;-70
2021/12/19 15:22:16;;;;;;;;;;;7.40;99.90;;;;;;5007534;28;19911;-71
2021/12/19 15:24:41;;;;;;;;;;;7.30;99.90;;;;;;5005945;28;20376;-71
2021/12/19 15:27:07;;;;;;;;;;;7.40;99.90;;;;;;5002555;28;19972;-69
2021/12/19 15:29:32;;;;;;;;;;;7.40;99.90;;;;;;4995081;28;19967;-69
2021/12/19 15:31:58;;;;;;;;;;;7.40;99.90;;;;;;4995946;28;20149;-70
2021/12/19 15:34:24;;;;;;;;;;;7.30;99.90;;;;;;5002175;28;20286;-70
2021/12/19 15:36:50;;;;;;;;;;;7.30;99.90;;;;;;5001619;28;20378;-71
2021/12/19 15:39:16;;;;;;;;;;;7.30;99.90;;;;;;5003715;28;19918;-71
2021/12/19 15:41:41;;;;;;;;;;;7.30;99.90;;;;;;5001747;28;20410;-70
2021/12/19 15:44:06;;;;;;;;;;;7.30;99.90;;;;;;5004940;28;19913;-70
2021/12/19 15:46:32;;;;;;;;;;;7.30;99.90;;;;;;5003541;28;19955;-71
2021/12/19 15:48:58;;;;;;;;;;;7.30;99.90;;;;;;5003410;28;19917;-71
2021/12/19 15:51:23;;;;;;;;;;;7.30;99.90;;;;;;5001136;28;19925;-69